Time;durP1;ratioP1;P1;durP2;ratioP2;P2;SDS_P1;SDS_P2;PMS_P1;PMS_P2;Temp;Humidity;BMP_temperature;BMP_pressure;BME280_temperature;BME280_humidity;BME280_pressure;Samples;Min_cycle;Max_cycle;Signal;HPM_P1;HPM_P2
2020/10/22 00:00:46;;;;;;;3.57;3.21;;;;;;;20.14;58.38;100143.66;;;;-58
2020/10/22 00:03:46;;;;;;;3.41;3.11;;;;;;;20.14;58.40;100136.49;;;;-58
2020/10/22 00:06:46;;;;;;;3.12;2.82;;;;;;;20.13;58.41;100138.71;;;;-58
2020/10/22 00:09:46;;;;;;;3.67;3.19;;;;;;;20.13;58.34;100140.64;;;;-58
2020/10/22 00:12:46;;;;;;;3.73;3.29;;;;;;;20.12;58.38;100139.27;;;;-58
2020/10/22 00:15:46;;;;;;;3.34;3.04;;;;;;;20.12;58.38;100145.53;;;;-58
2020/10/22 00:18:46;;;;;;;3.45;3.12;;;;;;;20.10;58.44;100140.08;;;;-58
2020/10/22 00:21:46;;;;;;;3.47;3.17;;;;;;;20.10;58.44;100140.91;;;;-59
2020/10/22 00:24:46;;;;;;;3.48;3.14;;;;;;;20.09;58.46;100146.28;;;;-58
2020/10/22 00:27:46;;;;;;;3.12;2.83;;;;;;;20.07;58.44;100147.98;;;;-59
2020/10/22 00:30:46;;;;;;;3.91;3.25;;;;;;;20.07;58.45;100154.91;;;;-58
2020/10/22 00:33:46;;;;;;;3.53;3.15;;;;;;;20.07;58.45;100152.70;;;;-58
2020/10/22 00:36:46;;;;;;;3.49;3.19;;;;;;;20.06;58.51;100149.44;;;;-58
2020/10/22 00:39:46;;;;;;;3.39;3.09;;;;;;;20.05;58.47;100147.02;;;;-58
2020/10/22 00:42:46;;;;;;;3.55;3.25;;;;;;;20.04;58.48;100149.20;;;;-58
2020/10/22 00:45:46;;;;;;;3.61;3.31;;;;;;;20.04;58.56;100160.75;;;;-58
2020/10/22 00:48:46;;;;;;;3.27;2.97;;;;;;;20.03;58.51;100156.77;;;;-58
2020/10/22 00:51:46;;;;;;;3.53;3.14;;;;;;;20.02;58.54;100155.95;;;;-59
2020/10/22 00:54:46;;;;;;;3.55;3.25;;;;;;;20.01;58.52;100159.05;;;;-58
2020/10/22 00:57:46;;;;;;;3.45;3.15;;;;;;;20.01;58.52;100163.77;;;;-58
2020/10/22 01:00:46;;;;;;;3.30;2.99;;;;;;;20.00;58.57;100165.39;;;;-58
2020/10/22 01:03:46;;;;;;;3.28;2.98;;;;;;;19.99;58.58;100171.49;;;;-58
2020/10/22 01:06:46;;;;;;;3.43;3.13;;;;;;;19.99;58.59;100170.77;;;;-58
2020/10/22 01:09:46;;;;;;;3.72;3.16;;;;;;;19.99;58.58;100178.09;;;;-58
2020/10/22 01:12:46;;;;;;;3.22;2.97;;;;;;;19.98;58.61;100175.96;;;;-58
2020/10/22 01:15:46;;;;;;;3.29;2.91;;;;;;;19.98;58.61;100169.78;;;;-59
2020/10/22 01:18:46;;;;;;;3.42;3.12;;;;;;;19.97;58.56;100170.77;;;;-58
2020/10/22 01:21:46;;;;;;;3.49;3.19;;;;;;;19.95;58.65;100177.84;;;;-58
2020/10/22 01:24:46;;;;;;;3.43;3.12;;;;;;;19.96;58.64;100175.47;;;;-58
2020/10/22 01:27:46;;;;;;;3.52;3.09;;;;;;;19.95;58.63;100169.14;;;;-58
2020/10/22 01:30:46;;;;;;;3.29;2.99;;;;;;;19.94;58.61;100170.10;;;;-58
2020/10/22 01:33:46;;;;;;;3.27;2.99;;;;;;;19.94;58.56;100164.25;;;;-58
2020/10/22 01:36:46;;;;;;;3.33;2.95;;;;;;;19.93;58.52;100162.71;;;;-58
2020/10/22 01:39:46;;;;;;;3.47;3.17;;;;;;;19.93;58.58;100170.36;;;;-58
2020/10/22 01:42:48;;;;;;;3.37;3.07;;;;;;;19.93;58.60;100163.70;;;;-58
2020/10/22 01:45:46;;;;;;;3.52;3.22;;;;;;;19.92;58.64;100158.17;;;;-58
2020/10/22 01:48:46;;;;;;;3.19;2.90;;;;;;;19.92;58.68;100162.30;;;;-58
2020/10/22 01:51:46;;;;;;;3.45;3.15;;;;;;;19.92;58.69;100161.48;;;;-59
2020/10/22 01:54:46;;;;;;;3.30;3.00;;;;;;;19.91;58.64;100159.55;;;;-58
2020/10/22 01:57:46;;;;;;;3.47;3.17;;;;;;;19.90;58.60;100162.37;;;;-58
2020/10/22 02:00:46;;;;;;;3.71;3.21;;;;;;;19.89;58.71;100159.53;;;;-58
2020/10/22 02:03:46;;;;;;;3.54;3.24;;;;;;;19.89;58.61;100158.81;;;;-58
2020/10/22 02:06:46;;;;;;;3.61;3.01;;;;;;;19.88;58.67;100148.49;;;;-58
2020/10/22 02:09:46;;;;;;;3.45;3.15;;;;;;;19.88;58.64;100149.14;;;;-58
2020/10/22 02:12:46;;;;;;;3.23;2.93;;;;;;;19.87;58.64;100151.24;;;;-59
2020/10/22 02:15:46;;;;;;;3.19;2.89;;;;;;;19.87;58.61;100140.68;;;;-58
2020/10/22 02:18:46;;;;;;;3.32;3.02;;;;;;;19.87;58.61;100137.67;;;;-58
2020/10/22 02:21:46;;;;;;;3.27;2.97;;;;;;;19.86;58.70;100141.58;;;;-58
2020/10/22 02:24:46;;;;;;;3.31;3.04;;;;;;;19.86;58.71;100140.05;;;;-58
2020/10/22 02:27:46;;;;;;;3.36;3.06;;;;;;;19.85;58.70;100134.81;;;;-58
2020/10/22 02:30:46;;;;;;;3.15;2.88;;;;;;;19.85;58.66;100138.97;;;;-58
2020/10/22 02:33:46;;;;;;;3.14;2.90;;;;;;;19.84;58.65;100138.09;;;;-58
2020/10/22 02:36:46;;;;;;;3.33;3.03;;;;;;;19.82;58.75;100137.27;;;;-58
2020/10/22 02:39:46;;;;;;;3.39;3.09;;;;;;;19.82;58.75;100137.92;;;;-58
2020/10/22 02:42:46;;;;;;;3.35;3.05;;;;;;;19.82;58.67;100138.25;;;;-58
2020/10/22 02:45:46;;;;;;;3.51;3.18;;;;;;;19.81;58.65;100146.28;;;;-58
2020/10/22 02:48:46;;;;;;;3.24;2.94;;;;;;;19.81;58.75;100148.73;;;;-58
2020/10/22 02:51:46;;;;;;;4.26;3.09;;;;;;;19.81;58.77;100157.34;;;;-58
2020/10/22 02:54:46;;;;;;;3.34;3.04;;;;;;;19.81;58.74;100167.91;;;;-58
2020/10/22 02:57:46;;;;;;;3.66;3.36;;;;;;;19.80;58.66;100177.45;;;;-58
2020/10/22 03:00:46;;;;;;;3.33;3.03;;;;;;;19.79;58.76;100179.13;;;;-58
2020/10/22 03:03:46;;;;;;;3.15;2.85;;;;;;;19.79;58.70;100186.20;;;;-58
2020/10/22 03:06:46;;;;;;;3.23;2.93;;;;;;;19.79;58.69;100186.53;;;;-58
2020/10/22 03:09:46;;;;;;;3.27;2.97;;;;;;;19.78;58.67;100184.27;;;;-58
2020/10/22 03:12:46;;;;;;;3.23;2.93;;;;;;;19.78;58.64;100178.50;;;;-58
2020/10/22 03:15:46;;;;;;;3.39;3.09;;;;;;;19.77;58.71;100175.72;;;;-58
2020/10/22 03:18:46;;;;;;;3.28;2.98;;;;;;;19.77;58.70;100186.05;;;;-58
2020/10/22 03:21:46;;;;;;;3.45;2.83;;;;;;;19.76;58.69;100189.55;;;;-58
2020/10/22 03:24:46;;;;;;;3.30;3.00;;;;;;;19.76;58.72;100193.70;;;;-59
2020/10/22 03:27:46;;;;;;;3.36;3.06;;;;;;;19.76;58.72;100194.76;;;;-58
2020/10/22 03:30:46;;;;;;;3.40;3.10;;;;;;;19.75;58.74;100190.77;;;;-58
2020/10/22 03:33:46;;;;;;;3.20;2.90;;;;;;;19.75;58.73;100183.77;;;;-58
2020/10/22 03:36:46;;;;;;;3.35;3.00;;;;;;;19.74;58.68;100184.67;;;;-58
2020/10/22 03:39:46;;;;;;;3.29;2.99;;;;;;;19.73;58.74;100184.58;;;;-58
2020/10/22 03:42:46;;;;;;;3.13;2.83;;;;;;;19.73;58.71;100192.87;;;;-58
2020/10/22 03:45:46;;;;;;;3.09;2.80;;;;;;;19.72;58.74;100193.05;;;;-58
2020/10/22 03:48:46;;;;;;;3.27;2.90;;;;;;;19.72;58.75;100196.86;;;;-58
2020/10/22 03:51:46;;;;;;;3.39;3.09;;;;;;;19.71;58.72;100200.84;;;;-58
2020/10/22 03:54:46;;;;;;;3.26;2.96;;;;;;;19.71;58.77;100203.27;;;;-58
2020/10/22 03:57:46;;;;;;;3.03;2.83;;;;;;;19.71;58.77;100199.21;;;;-58
2020/10/22 04:00:46;;;;;;;3.08;2.78;;;;;;;19.70;58.83;100195.88;;;;-58
2020/10/22 04:03:46;;;;;;;3.08;2.79;;;;;;;19.71;58.69;100201.81;;;;-58
2020/10/22 04:06:46;;;;;;;3.41;3.10;;;;;;;19.69;58.71;100204.70;;;;-58
2020/10/22 04:09:46;;;;;;;3.23;2.93;;;;;;;19.68;58.81;100200.08;;;;-57
2020/10/22 04:12:46;;;;;;;2.91;2.65;;;;;;;19.68;58.74;100196.02;;;;-58
2020/10/22 04:15:46;;;;;;;3.24;2.93;;;;;;;19.68;58.74;100198.20;;;;-58
2020/10/22 04:18:46;;;;;;;3.25;2.92;;;;;;;19.68;58.75;100207.30;;;;-58
2020/10/22 04:22:03;;;;;;;2.95;2.75;;;;;;;19.68;58.82;100210.00;;;;-58
2020/10/22 04:24:46;;;;;;;3.16;2.86;;;;;;;19.68;58.78;100213.91;;;;-58
2020/10/22 04:27:46;;;;;;;3.24;2.94;;;;;;;19.67;58.80;100209.09;;;;-58
2020/10/22 04:30:46;;;;;;;3.25;2.95;;;;;;;19.67;58.74;100201.77;;;;-58
2020/10/22 04:33:46;;;;;;;3.12;2.89;;;;;;;19.66;58.76;100199.83;;;;-58
2020/10/22 04:36:46;;;;;;;3.21;2.86;;;;;;;19.66;58.76;100189.59;;;;-58
2020/10/22 04:39:46;;;;;;;3.27;2.97;;;;;;;19.65;58.87;100188.70;;;;-58
2020/10/22 04:42:46;;;;;;;3.83;2.84;;;;;;;19.65;58.83;100194.13;;;;-58
2020/10/22 04:45:46;;;;;;;3.09;2.79;;;;;;;19.64;58.83;100196.73;;;;-58
2020/10/22 04:48:46;;;;;;;2.98;2.78;;;;;;;19.65;58.74;100202.69;;;;-58
2020/10/22 04:51:46;;;;;;;3.30;3.00;;;;;;;19.64;58.77;100205.03;;;;-58
2020/10/22 04:54:46;;;;;;;3.16;2.83;;;;;;;19.65;58.77;100207.22;;;;-58
2020/10/22 04:57:46;;;;;;;3.03;2.83;;;;;;;19.64;58.81;100207.88;;;;-58
2020/10/22 05:01:46;;;;;;;3.24;2.93;;;;;;;19.63;58.87;100212.03;;;;-58
2020/10/22 05:04:46;;;;;;;3.18;2.88;;;;;;;19.62;58.84;100219.17;;;;-58
2020/10/22 05:07:46;;;;;;;3.03;2.75;;;;;;;19.63;58.85;100221.20;;;;-57
2020/10/22 05:10:46;;;;;;;3.09;2.81;;;;;;;19.62;58.81;100223.97;;;;-58
2020/10/22 05:13:46;;;;;;;2.94;2.70;;;;;;;19.63;58.79;100225.91;;;;-58
2020/10/22 05:16:46;;;;;;;3.23;2.93;;;;;;;19.63;58.92;100234.20;;;;-58
2020/10/22 05:19:46;;;;;;;2.94;2.74;;;;;;;19.63;58.87;100232.44;;;;-58
2020/10/22 05:22:46;;;;;;;3.01;2.80;;;;;;;19.64;58.90;100230.97;;;;-58
2020/10/22 05:25:46;;;;;;;3.07;2.83;;;;;;;19.65;58.85;100224.85;;;;-58
2020/10/22 05:28:46;;;;;;;3.99;3.31;;;;;;;19.64;58.67;100223.48;;;;-60
2020/10/22 05:31:46;;;;;;;5.75;3.99;;;;;;;19.62;58.61;100223.00;;;;-60
2020/10/22 05:34:46;;;;;;;6.07;4.17;;;;;;;19.60;58.42;100222.25;;;;-60
2020/10/22 05:37:46;;;;;;;5.74;4.02;;;;;;;19.58;58.34;100223.63;;;;-60
2020/10/22 05:40:46;;;;;;;6.80;4.22;;;;;;;19.57;58.44;100223.48;;;;-60
2020/10/22 05:43:46;;;;;;;6.83;4.67;;;;;;;19.56;58.36;100231.67;;;;-59
2020/10/22 05:46:46;;;;;;;5.87;4.65;;;;;;;19.55;58.32;100232.74;;;;-59
2020/10/22 05:49:46;;;;;;;8.63;4.79;;;;;;;19.54;58.33;100226.63;;;;-52
2020/10/22 05:52:46;;;;;;;4.87;4.37;;;;;;;19.52;58.23;100230.04;;;;-52
2020/10/22 05:55:46;;;;;;;7.23;5.09;;;;;;;19.52;58.26;100232.72;;;;-53
2020/10/22 05:58:46;;;;;;;7.18;4.63;;;;;;;19.51;58.12;100232.30;;;;-53
2020/10/22 06:01:46;;;;;;;8.17;5.09;;;;;;;19.50;58.08;100238.16;;;;-52
2020/10/22 06:05:46;;;;;;;8.39;5.13;;;;;;;19.49;58.11;100248.17;;;;-52
2020/10/22 06:08:46;;;;;;;7.16;5.33;;;;;;;19.48;58.13;100244.58;;;;-52
2020/10/22 06:11:46;;;;;;;9.77;5.31;;;;;;;19.46;58.13;100245.87;;;;-52
2020/10/22 06:14:46;;;;;;;11.91;5.14;;;;;;;19.45;58.03;100252.70;;;;-52
2020/10/22 06:17:46;;;;;;;7.23;4.95;;;;;;;19.45;58.03;100258.23;;;;-52
2020/10/22 06:20:46;;;;;;;7.57;5.36;;;;;;;19.43;58.17;100262.45;;;;-52
2020/10/22 06:23:46;;;;;;;8.34;5.40;;;;;;;19.43;58.04;100269.44;;;;-52
2020/10/22 06:26:46;;;;;;;8.85;5.86;;;;;;;19.42;58.12;100270.02;;;;-52
2020/10/22 06:29:46;;;;;;;20.96;6.49;;;;;;;19.44;58.41;100271.87;;;;-52
2020/10/22 06:32:46;;;;;;;10.11;5.63;;;;;;;19.49;58.60;100281.98;;;;-51
2020/10/22 06:35:46;;;;;;;10.37;5.33;;;;;;;19.51;58.62;100285.56;;;;-54
2020/10/22 06:38:46;;;;;;;8.07;5.25;;;;;;;19.55;58.69;100290.37;;;;-53
2020/10/22 06:41:46;;;;;;;8.53;5.04;;;;;;;19.57;58.58;100289.80;;;;-52
2020/10/22 06:44:46;;;;;;;7.97;5.20;;;;;;;19.61;58.71;100294.67;;;;-58
2020/10/22 06:47:46;;;;;;;7.75;4.98;;;;;;;19.63;58.60;100300.07;;;;-57
2020/10/22 06:50:46;;;;;;;9.07;4.81;;;;;;;19.65;58.70;100306.34;;;;-57
2020/10/22 06:53:46;;;;;;;7.68;4.69;;;;;;;19.67;58.59;100305.61;;;;-59
2020/10/22 06:56:46;;;;;;;8.61;4.97;;;;;;;19.69;58.43;100308.36;;;;-55
2020/10/22 06:59:46;;;;;;;8.41;4.82;;;;;;;19.70;58.46;100312.63;;;;-59
2020/10/22 07:02:46;;;;;;;6.01;4.55;;;;;;;19.72;58.53;100316.78;;;;-64
2020/10/22 07:05:46;;;;;;;8.78;4.75;;;;;;;19.73;58.55;100315.55;;;;-55
2020/10/22 07:08:46;;;;;;;8.43;4.56;;;;;;;19.73;58.61;100325.48;;;;-55
2020/10/22 07:11:46;;;;;;;7.58;4.54;;;;;;;19.73;58.68;100329.86;;;;-60
2020/10/22 07:14:46;;;;;;;7.45;4.61;;;;;;;19.75;58.63;100337.11;;;;-51
2020/10/22 07:17:46;;;;;;;8.08;4.92;;;;;;;19.74;58.69;100334.27;;;;-51
2020/10/22 07:20:46;;;;;;;7.57;4.68;;;;;;;19.75;58.67;100344.02;;;;-51
2020/10/22 07:23:46;;;;;;;6.39;4.38;;;;;;;19.75;58.66;100359.14;;;;-51
2020/10/22 07:26:58;;;;;;;7.63;4.62;;;;;;;19.75;58.60;100356.30;;;;-51
2020/10/22 07:29:46;;;;;;;8.08;4.80;;;;;;;19.75;58.64;100358.33;;;;-51
2020/10/22 07:32:46;;;;;;;8.81;4.72;;;;;;;19.74;58.63;100357.36;;;;-51
2020/10/22 07:35:46;;;;;;;5.21;4.13;;;;;;;19.75;58.55;100366.63;;;;-51
2020/10/22 07:38:46;;;;;;;6.58;4.28;;;;;;;19.75;58.60;100379.47;;;;-51
2020/10/22 07:41:46;;;;;;;5.84;4.60;;;;;;;19.74;58.60;100385.25;;;;-51
2020/10/22 07:44:46;;;;;;;6.16;4.13;;;;;;;19.75;58.56;100390.78;;;;-51
2020/10/22 07:47:46;;;;;;;5.71;3.99;;;;;;;19.75;58.62;100396.06;;;;-51
2020/10/22 07:50:46;;;;;;;6.78;4.06;;;;;;;19.74;58.48;100400.30;;;;-51
2020/10/22 07:53:46;;;;;;;7.58;4.07;;;;;;;19.76;58.63;100403.80;;;;-54
2020/10/22 07:56:46;;;;;;;8.54;4.11;;;;;;;19.76;58.68;100404.53;;;;-52
2020/10/22 07:59:46;;;;;;;6.18;4.11;;;;;;;19.78;58.58;100409.51;;;;-61
2020/10/22 08:02:46;;;;;;;6.46;4.15;;;;;;;19.79;58.71;100410.47;;;;-58
2020/10/22 08:05:46;;;;;;;5.91;3.83;;;;;;;19.81;58.81;100413.81;;;;-53
2020/10/22 08:08:46;;;;;;;6.18;4.13;;;;;;;19.82;58.68;100413.31;;;;-56
2020/10/22 08:11:46;;;;;;;6.20;3.97;;;;;;;19.84;58.72;100414.95;;;;-61
2020/10/22 08:14:46;;;;;;;6.55;3.94;;;;;;;19.82;58.79;100418.06;;;;-60
2020/10/22 08:17:46;;;;;;;5.01;3.97;;;;;;;19.83;58.65;100425.77;;;;-61
2020/10/22 08:20:46;;;;;;;4.99;3.87;;;;;;;19.84;58.61;100426.34;;;;-59
2020/10/22 08:23:47;;;;;;;8.29;4.24;;;;;;;19.84;58.64;100419.62;;;;-59
2020/10/22 08:26:46;;;;;;;5.61;4.23;;;;;;;19.85;58.72;100420.74;;;;-60
2020/10/22 08:29:46;;;;;;;5.50;4.00;;;;;;;19.86;58.79;100426.05;;;;-57
2020/10/22 08:32:46;;;;;;;5.00;3.93;;;;;;;19.87;58.78;100428.97;;;;-58
2020/10/22 08:35:46;;;;;;;5.52;3.93;;;;;;;19.87;58.83;100422.78;;;;-58
2020/10/22 08:38:46;;;;;;;6.49;3.98;;;;;;;19.88;58.84;100425.57;;;;-57
2020/10/22 08:41:46;;;;;;;4.31;3.80;;;;;;;19.88;58.84;100419.95;;;;-64
2020/10/22 08:44:46;;;;;;;9.43;3.98;;;;;;;19.88;58.89;100409.55;;;;-63
2020/10/22 08:47:46;;;;;;;5.85;3.77;;;;;;;19.88;58.83;100413.13;;;;-65
2020/10/22 08:50:46;;;;;;;6.43;3.76;;;;;;;19.89;58.87;100408.73;;;;-60
2020/10/22 08:53:46;;;;;;;7.61;4.03;;;;;;;19.88;58.77;100409.22;;;;-60
2020/10/22 08:56:46;;;;;;;6.51;3.74;;;;;;;19.89;58.87;100401.41;;;;-56
2020/10/22 08:59:46;;;;;;;4.83;3.68;;;;;;;19.90;58.80;100402.23;;;;-56
2020/10/22 09:02:46;;;;;;;4.78;3.64;;;;;;;19.91;58.87;100398.66;;;;-55
2020/10/22 09:05:46;;;;;;;5.57;3.85;;;;;;;19.91;58.89;100409.39;;;;-59
2020/10/22 09:08:46;;;;;;;5.27;3.75;;;;;;;19.91;58.81;100400.52;;;;-57
2020/10/22 09:11:46;;;;;;;5.81;3.56;;;;;;;19.91;58.83;100394.42;;;;-58
2020/10/22 09:14:47;;;;;;;7.35;3.63;;;;;;;19.91;58.81;100399.37;;;;-58
2020/10/22 09:17:46;;;;;;;6.21;3.73;;;;;;;19.90;58.76;100396.87;;;;-57
2020/10/22 09:20:46;;;;;;;4.30;3.61;;;;;;;19.90;58.84;100401.67;;;;-57
2020/10/22 09:23:46;;;;;;;8.17;3.75;;;;;;;19.90;58.81;100397.91;;;;-56
2020/10/22 09:26:46;;;;;;;6.49;3.91;;;;;;;19.92;58.78;100396.36;;;;-61
2020/10/22 09:29:46;;;;;;;7.29;3.79;;;;;;;19.91;58.85;100393.12;;;;-61
2020/10/22 09:32:46;;;;;;;5.05;3.50;;;;;;;19.92;58.75;100386.12;;;;-60
2020/10/22 09:35:46;;;;;;;7.27;3.79;;;;;;;19.91;58.77;100385.96;;;;-61
2020/10/22 09:38:46;;;;;;;9.93;3.75;;;;;;;19.90;58.99;100386.52;;;;-52
2020/10/22 09:41:46;;;;;;;5.07;3.43;;;;;;;19.91;58.84;100387.51;;;;-56
2020/10/22 09:44:46;;;;;;;7.29;3.80;;;;;;;19.92;58.85;100383.95;;;;-52
2020/10/22 09:47:46;;;;;;;7.25;3.75;;;;;;;19.93;58.89;100385.81;;;;-64
2020/10/22 09:50:46;;;;;;;5.57;3.45;;;;;;;19.93;58.81;100383.85;;;;-56
2020/10/22 09:53:46;;;;;;;8.53;3.62;;;;;;;19.93;58.81;100387.19;;;;-58
2020/10/22 09:56:46;;;;;;;5.21;3.55;;;;;;;19.94;58.74;100388.72;;;;-56
2020/10/22 09:59:46;;;;;;;5.14;3.59;;;;;;;19.95;58.86;100382.40;;;;-57
2020/10/22 10:02:46;;;;;;;7.53;3.69;;;;;;;19.95;58.79;100381.66;;;;-56
2020/10/22 10:05:46;;;;;;;6.42;3.82;;;;;;;19.96;58.76;100378.41;;;;-63
2020/10/22 10:08:46;;;;;;;6.62;3.78;;;;;;;19.95;58.81;100381.50;;;;-63
2020/10/22 10:11:46;;;;;;;7.53;3.85;;;;;;;19.95;58.75;100394.52;;;;-54
2020/10/22 10:14:46;;;;;;;5.31;3.33;;;;;;;19.95;58.72;100386.14;;;;-54
2020/10/22 10:17:46;;;;;;;4.47;3.38;;;;;;;19.94;58.77;100387.42;;;;-54
2020/10/22 10:20:46;;;;;;;5.68;3.69;;;;;;;19.94;58.69;100377.50;;;;-54
2020/10/22 10:23:46;;;;;;;6.17;3.70;;;;;;;19.93;58.67;100378.81;;;;-54
2020/10/22 10:26:46;;;;;;;5.90;3.51;;;;;;;19.93;58.65;100381.58;;;;-54
2020/10/22 10:29:46;;;;;;;6.88;3.75;;;;;;;19.92;58.73;100373.86;;;;-54
2020/10/22 10:32:46;;;;;;;4.22;3.41;;;;;;;19.92;58.64;100375.54;;;;-54
2020/10/22 10:35:46;;;;;;;4.63;3.32;;;;;;;19.92;58.72;100375.54;;;;-54
2020/10/22 10:38:46;;;;;;;4.24;3.43;;;;;;;19.91;58.71;100373.52;;;;-54
2020/10/22 10:41:46;;;;;;;5.34;3.40;;;;;;;19.90;58.63;100369.13;;;;-54
2020/10/22 10:44:46;;;;;;;6.29;3.39;;;;;;;19.90;58.59;100363.69;;;;-54
2020/10/22 10:47:46;;;;;;;5.91;3.41;;;;;;;19.89;58.66;100364.15;;;;-54
2020/10/22 10:50:46;;;;;;;5.78;3.29;;;;;;;19.90;58.66;100368.13;;;;-54
2020/10/22 10:53:46;;;;;;;4.99;3.35;;;;;;;19.89;58.62;100357.48;;;;-54
2020/10/22 10:56:46;;;;;;;3.83;3.31;;;;;;;19.90;58.55;100352.03;;;;-55
2020/10/22 10:59:46;;;;;;;4.77;3.28;;;;;;;19.89;58.55;100347.73;;;;-53
2020/10/22 11:02:46;;;;;;;4.43;3.27;;;;;;;19.89;58.53;100347.89;;;;-54
2020/10/22 11:05:46;;;;;;;3.95;3.20;;;;;;;19.88;58.59;100349.85;;;;-53
2020/10/22 11:08:46;;;;;;;5.41;3.07;;;;;;;19.88;58.60;100340.64;;;;-54
2020/10/22 11:11:46;;;;;;;5.92;3.55;;;;;;;19.88;58.67;100335.13;;;;-51
2020/10/22 11:14:46;;;;;;;6.53;3.13;;;;;;;19.88;58.74;100334.24;;;;-50
2020/10/22 11:17:46;;;;;;;4.53;3.11;;;;;;;19.89;58.77;100327.32;;;;-49
2020/10/22 11:20:46;;;;;;;5.60;3.33;;;;;;;19.90;58.83;100325.47;;;;-50
2020/10/22 11:23:46;;;;;;;5.51;3.28;;;;;;;19.91;58.81;100325.37;;;;-50
2020/10/22 11:26:46;;;;;;;6.89;3.13;;;;;;;19.92;59.00;100321.62;;;;-52
2020/10/22 11:29:46;;;;;;;10.51;3.27;;;;;;;19.93;59.01;100318.46;;;;-51
2020/10/22 11:32:46;;;;;;;9.82;3.41;;;;;;;19.94;59.07;100318.56;;;;-54
2020/10/22 11:35:45;;;;;;;11.45;3.64;;;;;;;19.96;59.08;100314.39;;;;-50
2020/10/22 11:38:46;;;;;;;6.33;3.21;;;;;;;19.95;59.07;100313.83;;;;-51
2020/10/22 11:41:46;;;;;;;7.88;3.12;;;;;;;19.97;58.96;100308.30;;;;-50
2020/10/22 11:44:46;;;;;;;5.96;3.08;;;;;;;19.99;59.00;100307.09;;;;-52
2020/10/22 11:47:46;;;;;;;4.88;3.21;;;;;;;19.99;59.08;100306.35;;;;-49
2020/10/22 11:50:46;;;;;;;4.65;3.05;;;;;;;20.01;59.04;100309.20;;;;-56
2020/10/22 11:53:46;;;;;;;6.60;3.11;;;;;;;20.01;59.01;100308.23;;;;-53
2020/10/22 11:56:46;;;;;;;5.23;3.37;;;;;;;20.02;58.99;100302.28;;;;-54
2020/10/22 11:59:46;;;;;;;4.38;2.81;;;;;;;20.03;58.97;100297.50;;;;-54
2020/10/22 12:02:46;;;;;;;5.43;3.16;;;;;;;20.03;58.96;100292.55;;;;-54
2020/10/22 12:05:46;;;;;;;6.55;3.08;;;;;;;20.04;59.09;100284.72;;;;-53
2020/10/22 12:08:46;;;;;;;4.46;2.89;;;;;;;20.05;59.00;100286.53;;;;-51
2020/10/22 12:11:46;;;;;;;4.85;2.91;;;;;;;20.05;59.13;100281.00;;;;-52
2020/10/22 12:14:46;;;;;;;3.99;2.80;;;;;;;20.05;59.06;100277.16;;;;-56
2020/10/22 12:17:46;;;;;;;5.92;3.09;;;;;;;20.05;59.01;100270.66;;;;-57
2020/10/22 12:20:46;;;;;;;6.11;3.03;;;;;;;20.05;59.03;100265.53;;;;-56
2020/10/22 12:23:46;;;;;;;5.07;3.01;;;;;;;20.05;58.94;100261.31;;;;-56
2020/10/22 12:26:46;;;;;;;6.53;3.23;;;;;;;20.04;59.00;100263.97;;;;-55
2020/10/22 12:29:46;;;;;;;6.85;3.01;;;;;;;20.03;58.95;100259.52;;;;-57
2020/10/22 12:32:46;;;;;;;5.97;3.12;;;;;;;20.03;58.95;100254.30;;;;-56
2020/10/22 12:35:46;;;;;;;5.15;3.03;;;;;;;20.03;58.86;100252.69;;;;-55
2020/10/22 12:38:46;;;;;;;6.31;3.11;;;;;;;20.02;58.85;100246.23;;;;-55
2020/10/22 12:41:46;;;;;;;4.23;3.01;;;;;;;20.02;58.82;100250.47;;;;-56
2020/10/22 12:44:46;;;;;;;6.03;3.08;;;;;;;20.02;58.82;100248.77;;;;-55
2020/10/22 12:47:46;;;;;;;4.61;2.67;;;;;;;20.01;58.86;100239.02;;;;-55
2020/10/22 12:50:46;;;;;;;7.50;2.97;;;;;;;20.00;58.91;100231.27;;;;-52
2020/10/22 12:53:50;;;;;;;5.48;2.99;;;;;;;20.01;59.05;100223.23;;;;-62
2020/10/22 12:56:46;;;;;;;6.15;3.18;;;;;;;20.01;58.99;100222.50;;;;-63
2020/10/22 12:59:46;;;;;;;6.62;2.92;;;;;;;20.02;58.90;100218.99;;;;-62
2020/10/22 13:02:46;;;;;;;5.47;3.05;;;;;;;20.00;58.94;100214.83;;;;-62
2020/10/22 13:05:46;;;;;;;10.75;3.60;;;;;;;19.99;59.05;100206.14;;;;-61
2020/10/22 13:08:46;;;;;;;6.30;2.96;;;;;;;20.01;58.99;100205.83;;;;-55
2020/10/22 13:11:46;;;;;;;5.72;2.86;;;;;;;20.01;59.08;100201.19;;;;-50
2020/10/22 13:14:46;;;;;;;5.58;3.11;;;;;;;20.02;59.08;100198.09;;;;-54
2020/10/22 13:17:46;;;;;;;7.29;2.96;;;;;;;20.03;59.13;100196.30;;;;-53
2020/10/22 13:20:46;;;;;;;8.42;3.14;;;;;;;20.04;59.25;100190.19;;;;-50
2020/10/22 13:23:46;;;;;;;4.36;2.80;;;;;;;20.05;59.47;100185.58;;;;-58
2020/10/22 13:26:46;;;;;;;5.99;2.82;;;;;;;20.05;59.34;100185.48;;;;-58
2020/10/22 13:29:46;;;;;;;7.38;3.01;;;;;;;20.06;59.41;100185.72;;;;-62
2020/10/22 13:32:46;;;;;;;5.10;2.94;;;;;;;20.06;59.44;100180.52;;;;-51
2020/10/22 13:35:46;;;;;;;5.37;2.93;;;;;;;20.07;59.37;100180.86;;;;-52
2020/10/22 13:38:46;;;;;;;6.78;2.89;;;;;;;20.08;59.37;100188.41;;;;-54
2020/10/22 13:41:46;;;;;;;6.04;3.10;;;;;;;20.09;59.42;100182.56;;;;-59
2020/10/22 13:44:46;;;;;;;8.67;3.25;;;;;;;20.09;59.40;100179.22;;;;-56
2020/10/22 13:47:46;;;;;;;5.89;2.79;;;;;;;20.11;59.51;100184.09;;;;-58
2020/10/22 13:50:46;;;;;;;6.85;2.97;;;;;;;20.12;59.39;100180.92;;;;-58
2020/10/22 13:53:46;;;;;;;7.63;3.00;;;;;;;20.13;59.42;100186.88;;;;-51
2020/10/22 13:56:45;;;;;;;6.79;2.96;;;;;;;20.14;59.44;100186.62;;;;-57
2020/10/22 13:59:46;;;;;;;4.40;2.73;;;;;;;20.14;59.45;100191.41;;;;-57
2020/10/22 14:02:46;;;;;;;5.03;2.72;;;;;;;20.14;59.58;100185.23;;;;-59
2020/10/22 14:05:46;;;;;;;5.28;3.00;;;;;;;20.16;59.52;100192.71;;;;-51
2020/10/22 14:08:46;;;;;;;5.51;2.66;;;;;;;20.16;59.45;100200.28;;;;-54
2020/10/22 14:11:46;;;;;;;8.25;3.01;;;;;;;20.15;59.68;100205.26;;;;-52
2020/10/22 14:14:46;;;;;;;4.33;2.83;;;;;;;20.16;59.35;100206.46;;;;-65
2020/10/22 14:17:46;;;;;;;6.16;2.90;;;;;;;20.14;59.40;100200.93;;;;-65
2020/10/22 14:20:46;;;;;;;6.98;2.81;;;;;;;20.14;59.62;100208.17;;;;-57
2020/10/22 14:23:46;;;;;;;6.66;3.05;;;;;;;20.15;59.57;100215.83;;;;-53
2020/10/22 14:26:46;;;;;;;6.62;2.91;;;;;;;20.14;59.59;100209.15;;;;-56
2020/10/22 14:29:46;;;;;;;8.77;2.88;;;;;;;20.15;59.58;100204.83;;;;-56
2020/10/22 14:32:46;;;;;;;4.78;2.68;;;;;;;20.16;59.49;100199.23;;;;-51
2020/10/22 14:35:46;;;;;;;7.28;2.60;;;;;;;20.16;59.48;100198.97;;;;-52
2020/10/22 14:38:46;;;;;;;13.71;3.12;;;;;;;20.17;59.63;100194.73;;;;-54
2020/10/22 14:41:46;;;;;;;11.55;3.19;;;;;;;20.17;59.47;100189.47;;;;-52
2020/10/22 14:44:46;;;;;;;7.07;2.77;;;;;;;20.17;59.56;100193.94;;;;-52
2020/10/22 14:47:45;;;;;;;6.24;2.95;;;;;;;20.17;59.64;100189.13;;;;-56
2020/10/22 14:50:46;;;;;;;8.28;3.13;;;;;;;20.17;59.68;100188.34;;;;-57
2020/10/22 14:53:46;;;;;;;6.33;2.83;;;;;;;20.19;59.50;100194.03;;;;-59
2020/10/22 14:56:45;;;;;;;6.42;2.88;;;;;;;20.19;59.59;100191.42;;;;-56
2020/10/22 14:59:46;;;;;;;7.06;2.80;;;;;;;20.20;59.60;100192.39;;;;-51
2020/10/22 15:02:46;;;;;;;5.93;2.76;;;;;;;20.19;59.54;100194.59;;;;-58
2020/10/22 15:05:45;;;;;;;6.00;2.81;;;;;;;20.20;59.53;100192.95;;;;-56
2020/10/22 15:08:46;;;;;;;5.31;2.72;;;;;;;20.21;59.56;100201.98;;;;-57
2020/10/22 15:11:46;;;;;;;8.11;2.80;;;;;;;20.21;59.52;100208.51;;;;-47
2020/10/22 15:14:45;;;;;;;7.59;2.87;;;;;;;20.21;59.52;100202.33;;;;-48
2020/10/22 15:17:46;;;;;;;5.51;2.67;;;;;;;20.22;59.59;100196.55;;;;-49
2020/10/22 15:20:46;;;;;;;6.09;2.60;;;;;;;20.22;59.55;100187.67;;;;-51
2020/10/22 15:23:46;;;;;;;6.01;2.81;;;;;;;20.22;59.58;100190.67;;;;-49
2020/10/22 15:26:46;;;;;;;6.94;2.76;;;;;;;20.23;59.57;100199.53;;;;-51
2020/10/22 15:29:46;;;;;;;4.89;2.59;;;;;;;20.23;59.50;100198.09;;;;-51
2020/10/22 15:32:46;;;;;;;9.50;2.62;;;;;;;20.24;59.53;100195.41;;;;-61
2020/10/22 15:35:46;;;;;;;5.62;2.70;;;;;;;20.24;59.43;100203.37;;;;-48
2020/10/22 15:38:46;;;;;;;4.32;2.53;;;;;;;20.23;59.48;100202.14;;;;-48
2020/10/22 15:41:46;;;;;;;5.81;2.65;;;;;;;20.22;59.45;100206.55;;;;-48
2020/10/22 15:44:46;;;;;;;3.88;2.59;;;;;;;20.21;59.44;100207.51;;;;-48
2020/10/22 15:47:46;;;;;;;3.75;2.49;;;;;;;20.20;59.41;100213.70;;;;-48
2020/10/22 15:50:46;;;;;;;5.03;2.74;;;;;;;20.19;59.32;100210.79;;;;-48
2020/10/22 15:53:46;;;;;;;4.11;2.61;;;;;;;20.19;59.35;100213.47;;;;-48
2020/10/22 15:56:46;;;;;;;5.62;2.74;;;;;;;20.19;59.25;100216.16;;;;-48
2020/10/22 15:59:45;;;;;;;4.55;2.55;;;;;;;20.17;59.36;100215.32;;;;-48
2020/10/22 16:02:46;;;;;;;4.83;2.68;;;;;;;20.16;59.23;100218.02;;;;-48
2020/10/22 16:05:46;;;;;;;4.15;2.51;;;;;;;20.17;59.27;100227.04;;;;-48
2020/10/22 16:08:46;;;;;;;4.53;2.53;;;;;;;20.16;59.25;100224.03;;;;-48
2020/10/22 16:11:46;;;;;;;5.21;2.68;;;;;;;20.14;59.32;100223.87;;;;-48
2020/10/22 16:14:46;;;;;;;3.81;2.45;;;;;;;20.14;59.30;100224.36;;;;-64
2020/10/22 16:17:46;;;;;;;7.25;2.48;;;;;;;20.13;59.36;100225.67;;;;-58
2020/10/22 16:20:46;;;;;;;4.33;2.63;;;;;;;20.14;59.40;100227.22;;;;-58
2020/10/22 16:23:46;;;;;;;4.63;2.59;;;;;;;20.14;59.46;100231.28;;;;-61
2020/10/22 16:26:45;;;;;;;5.21;2.53;;;;;;;20.14;59.42;100232.33;;;;-57
2020/10/22 16:29:46;;;;;;;3.89;2.68;;;;;;;20.16;59.46;100236.33;;;;-61
2020/10/22 16:32:46;;;;;;;4.39;2.41;;;;;;;20.16;59.45;100242.19;;;;-57
2020/10/22 16:35:45;;;;;;;7.54;2.60;;;;;;;20.17;59.49;100249.98;;;;-59
2020/10/22 16:38:46;;;;;;;3.72;2.31;;;;;;;20.16;59.45;100250.80;;;;-58
2020/10/22 16:41:46;;;;;;;7.44;2.52;;;;;;;20.17;59.62;100252.94;;;;-57